sensor_id;sensor_type;location;lat;lon;timestamp;P1;durP1;ratioP1;P2;durP2;ratioP2
32242;SDS011;18731;42.830;24.390;2022-11-20T03:01:44;7.25;;;2.90;;
32242;SDS011;18731;42.830;24.390;2022-11-20T03:04:10;12.13;;;2.95;;
32242;SDS011;18731;42.830;24.390;2022-11-20T03:06:36;11.82;;;3.17;;
32242;SDS011;18731;42.830;24.390;2022-11-20T03:09:01;10.45;;;3.30;;
32242;SDS011;18731;42.830;24.390;2022-11-20T03:11:27;11.30;;;3.10;;
32242;SDS011;18731;42.830;24.390;2022-11-20T03:13:54;8.40;;;3.10;;
32242;SDS011;18731;42.830;24.390;2022-11-20T03:16:20;8.57;;;3.08;;
32242;SDS011;18731;42.830;24.390;2022-11-20T03:18:48;10.25;;;3.05;;
32242;SDS011;18731;42.830;24.390;2022-11-20T03:21:15;12.30;;;2.78;;
32242;SDS011;18731;42.830;24.390;2022-11-20T03:23:41;9.18;;;3.17;;
32242;SDS011;18731;42.830;24.390;2022-11-20T03:26:11;14.23;;;2.92;;
32242;SDS011;18731;42.830;24.390;2022-11-20T03:28:42;15.60;;;2.70;;
32242;SDS011;18731;42.830;24.390;2022-11-20T03:31:13;8.43;;;2.33;;
32242;SDS011;18731;42.830;24.390;2022-11-20T03:33:41;12.80;;;2.60;;
32242;SDS011;18731;42.830;24.390;2022-11-20T03:36:08;15.05;;;3.25;;
32242;SDS011;18731;42.830;24.390;2022-11-20T03:38:36;11.15;;;2.40;;
32242;SDS011;18731;42.830;24.390;2022-11-20T03:41:06;9.18;;;3.20;;
32242;SDS011;18731;42.830;24.390;2022-11-20T03:43:36;13.73;;;2.65;;
32242;SDS011;18731;42.830;24.390;2022-11-20T03:46:02;9.35;;;2.42;;
32242;SDS011;18731;42.830;24.390;2022-11-20T03:48:28;12.57;;;2.95;;
32242;SDS011;18731;42.830;24.390;2022-11-20T03:51:07;17.17;;;2.88;;
32242;SDS011;18731;42.830;24.390;2022-11-20T03:53:33;7.35;;;2.40;;
32242;SDS011;18731;42.830;24.390;2022-11-20T03:55:59;12.85;;;4.93;;
32242;SDS011;18731;42.830;24.390;2022-11-20T03:58:24;8.20;;;3.28;;
32242;SDS011;18731;42.830;24.390;2022-11-20T04:00:50;8.55;;;2.58;;
32242;SDS011;18731;42.830;24.390;2022-11-20T04:03:15;8.90;;;3.83;;
32242;SDS011;18731;42.830;24.390;2022-11-20T04:05:41;7.22;;;3.00;;
32242;SDS011;18731;42.830;24.390;2022-11-20T04:08:06;13.65;;;6.22;;
32242;SDS011;18731;42.830;24.390;2022-11-20T04:10:32;10.38;;;3.17;;
32242;SDS011;18731;42.830;24.390;2022-11-20T04:12:58;11.60;;;2.45;;
32242;SDS011;18731;42.830;24.390;2022-11-20T04:15:24;8.57;;;3.50;;
32242;SDS011;18731;42.830;24.390;2022-11-20T04:17:49;9.25;;;3.53;;
32242;SDS011;18731;42.830;24.390;2022-11-20T04:20:15;13.63;;;3.47;;
32242;SDS011;18731;42.830;24.390;2022-11-20T04:22:41;9.10;;;3.03;;
32242;SDS011;18731;42.830;24.390;2022-11-20T04:25:06;9.25;;;2.83;;
32242;SDS011;18731;42.830;24.390;2022-11-20T04:27:32;12.68;;;3.67;;
32242;SDS011;18731;42.830;24.390;2022-11-20T04:29:58;9.70;;;2.95;;
32242;SDS011;18731;42.830;24.390;2022-11-20T04:32:24;10.95;;;2.83;;
32242;SDS011;18731;42.830;24.390;2022-11-20T04:34:49;10.38;;;3.05;;
32242;SDS011;18731;42.830;24.390;2022-11-20T04:37:15;10.15;;;3.10;;
32242;SDS011;18731;42.830;24.390;2022-11-20T04:39:40;6.45;;;2.88;;
32242;SDS011;18731;42.830;24.390;2022-11-20T04:42:08;7.03;;;3.70;;
32242;SDS011;18731;42.830;24.390;2022-11-20T04:44:53;14.35;;;3.85;;
32242;SDS011;18731;42.830;24.390;2022-11-20T04:47:19;14.40;;;3.55;;
32242;SDS011;18731;42.830;24.390;2022-11-20T04:49:45;6.68;;;3.28;;
32242;SDS011;18731;42.830;24.390;2022-11-20T04:52:11;9.20;;;3.20;;
32242;SDS011;18731;42.830;24.390;2022-11-20T04:54:36;8.00;;;3.97;;
32242;SDS011;18731;42.830;24.390;2022-11-20T04:57:02;9.75;;;2.30;;
32242;SDS011;18731;42.830;24.390;2022-11-20T04:59:28;6.70;;;2.22;;
32242;SDS011;18731;42.830;24.390;2022-11-20T05:01:53;5.80;;;2.08;;
32242;SDS011;18731;42.830;24.390;2022-11-20T05:04:19;4.60;;;1.23;;
32242;SDS011;18731;42.830;24.390;2022-11-20T05:06:44;6.53;;;1.63;;
32242;SDS011;18731;42.830;24.390;2022-11-20T05:09:11;5.85;;;1.70;;
32242;SDS011;18731;42.830;24.390;2022-11-20T05:11:37;8.20;;;1.30;;
32242;SDS011;18731;42.830;24.390;2022-11-20T05:14:03;5.72;;;1.65;;
32242;SDS011;18731;42.830;24.390;2022-11-20T05:16:28;8.50;;;1.58;;
32242;SDS011;18731;42.830;24.390;2022-11-20T05:18:55;6.63;;;1.77;;
32242;SDS011;18731;42.830;24.390;2022-11-20T05:21:21;7.03;;;1.40;;
32242;SDS011;18731;42.830;24.390;2022-11-20T05:23:47;8.82;;;1.65;;
32242;SDS011;18731;42.830;24.390;2022-11-20T05:26:17;2.72;;;1.38;;
32242;SDS011;18731;42.830;24.390;2022-11-20T05:28:44;9.88;;;2.90;;
32242;SDS011;18731;42.830;24.390;2022-11-20T05:31:11;2.92;;;1.20;;
32242;SDS011;18731;42.830;24.390;2022-11-20T05:33:42;5.50;;;1.55;;
32242;SDS011;18731;42.830;24.390;2022-11-20T05:36:09;9.82;;;3.60;;
32242;SDS011;18731;42.830;24.390;2022-11-20T05:38:37;9.65;;;4.03;;
32242;SDS011;18731;42.830;24.390;2022-11-20T05:41:10;7.57;;;3.38;;
32242;SDS011;18731;42.830;24.390;2022-11-20T05:43:41;8.27;;;3.45;;
32242;SDS011;18731;42.830;24.390;2022-11-20T05:46:09;11.45;;;4.20;;
32242;SDS011;18731;42.830;24.390;2022-11-20T05:48:37;10.65;;;3.92;;
32242;SDS011;18731;42.830;24.390;2022-11-20T05:51:04;12.55;;;5.40;;
32242;SDS011;18731;42.830;24.390;2022-11-20T05:53:32;18.00;;;6.80;;
32242;SDS011;18731;42.830;24.390;2022-11-20T05:56:05;12.40;;;5.65;;
32242;SDS011;18731;42.830;24.390;2022-11-20T05:58:36;12.95;;;6.13;;
32242;SDS011;18731;42.830;24.390;2022-11-20T06:01:06;13.38;;;6.47;;
32242;SDS011;18731;42.830;24.390;2022-11-20T06:03:39;12.48;;;4.97;;
32242;SDS011;18731;42.830;24.390;2022-11-20T06:06:07;16.65;;;6.13;;
32242;SDS011;18731;42.830;24.390;2022-11-20T06:08:33;17.38;;;8.88;;
32242;SDS011;18731;42.830;24.390;2022-11-20T06:11:02;27.90;;;11.63;;
32242;SDS011;18731;42.830;24.390;2022-11-20T06:13:32;22.40;;;10.45;;
32242;SDS011;18731;42.830;24.390;2022-11-20T06:15:58;18.85;;;9.15;;
32242;SDS011;18731;42.830;24.390;2022-11-20T06:18:25;11.32;;;7.05;;
32242;SDS011;18731;42.830;24.390;2022-11-20T06:20:58;18.10;;;6.85;;
32242;SDS011;18731;42.830;24.390;2022-11-20T06:23:31;10.73;;;7.18;;
32242;SDS011;18731;42.830;24.390;2022-11-20T06:26:01;12.93;;;7.43;;
32242;SDS011;18731;42.830;24.390;2022-11-20T06:28:30;15.05;;;6.45;;
32242;SDS011;18731;42.830;24.390;2022-11-20T06:30:55;11.68;;;7.13;;
32242;SDS011;18731;42.830;24.390;2022-11-20T06:33:22;12.05;;;7.53;;
32242;SDS011;18731;42.830;24.390;2022-11-20T06:35:47;12.68;;;7.50;;
32242;SDS011;18731;42.830;24.390;2022-11-20T06:38:13;11.52;;;8.00;;
32242;SDS011;18731;42.830;24.390;2022-11-20T06:40:42;12.73;;;8.15;;
32242;SDS011;18731;42.830;24.390;2022-11-20T06:43:08;12.13;;;7.68;;
32242;SDS011;18731;42.830;24.390;2022-11-20T06:45:35;15.45;;;9.13;;
32242;SDS011;18731;42.830;24.390;2022-11-20T06:48:01;15.80;;;9.02;;
32242;SDS011;18731;42.830;24.390;2022-11-20T06:50:28;13.95;;;9.25;;
32242;SDS011;18731;42.830;24.390;2022-11-20T06:52:54;18.63;;;11.55;;
32242;SDS011;18731;42.830;24.390;2022-11-20T06:55:19;13.77;;;9.57;;
32242;SDS011;18731;42.830;24.390;2022-11-20T06:57:45;12.57;;;8.48;;
32242;SDS011;18731;42.830;24.390;2022-11-20T07:00:11;12.32;;;8.20;;
32242;SDS011;18731;42.830;24.390;2022-11-20T07:02:37;13.88;;;8.88;;
32242;SDS011;18731;42.830;24.390;2022-11-20T07:05:03;12.73;;;8.32;;
32242;SDS011;18731;42.830;24.390;2022-11-20T07:07:28;13.18;;;9.48;;
32242;SDS011;18731;42.830;24.390;2022-11-20T07:09:54;17.60;;;10.25;;
32242;SDS011;18731;42.830;24.390;2022-11-20T07:12:20;15.00;;;9.43;;
32242;SDS011;18731;42.830;24.390;2022-11-20T07:14:45;12.48;;;8.60;;
32242;SDS011;18731;42.830;24.390;2022-11-20T07:17:11;15.35;;;8.82;;
32242;SDS011;18731;42.830;24.390;2022-11-20T07:19:37;15.82;;;10.25;;
32242;SDS011;18731;42.830;24.390;2022-11-20T07:22:03;16.30;;;10.57;;
32242;SDS011;18731;42.830;24.390;2022-11-20T07:24:28;29.52;;;13.50;;
32242;SDS011;18731;42.830;24.390;2022-11-20T07:26:54;12.70;;;8.80;;
32242;SDS011;18731;42.830;24.390;2022-11-20T07:29:20;12.77;;;8.18;;
32242;SDS011;18731;42.830;24.390;2022-11-20T07:31:45;14.02;;;9.07;;
32242;SDS011;18731;42.830;24.390;2022-11-20T07:34:11;13.27;;;8.95;;
32242;SDS011;18731;42.830;24.390;2022-11-20T07:36:37;14.95;;;9.73;;
32242;SDS011;18731;42.830;24.390;2022-11-20T07:39:02;15.63;;;9.85;;
32242;SDS011;18731;42.830;24.390;2022-11-20T07:41:28;14.23;;;9.75;;
32242;SDS011;18731;42.830;24.390;2022-11-20T07:43:54;21.55;;;9.32;;
32242;SDS011;18731;42.830;24.390;2022-11-20T07:46:20;22.90;;;11.02;;
32242;SDS011;18731;42.830;24.390;2022-11-20T07:48:45;15.25;;;9.85;;
32242;SDS011;18731;42.830;24.390;2022-11-20T07:51:11;17.65;;;11.10;;
32242;SDS011;18731;42.830;24.390;2022-11-20T07:53:36;16.58;;;11.00;;
32242;SDS011;18731;42.830;24.390;2022-11-20T07:56:02;18.15;;;11.55;;
32242;SDS011;18731;42.830;24.390;2022-11-20T07:58:29;17.90;;;10.35;;
32242;SDS011;18731;42.830;24.390;2022-11-20T08:00:55;19.83;;;11.00;;
32242;SDS011;18731;42.830;24.390;2022-11-20T08:03:21;20.80;;;11.32;;
32242;SDS011;18731;42.830;24.390;2022-11-20T08:05:47;17.67;;;11.13;;
32242;SDS011;18731;42.830;24.390;2022-11-20T08:08:12;16.92;;;11.10;;
32242;SDS011;18731;42.830;24.390;2022-11-20T08:10:38;18.35;;;11.45;;
32242;SDS011;18731;42.830;24.390;2022-11-20T08:13:03;16.83;;;10.60;;
32242;SDS011;18731;42.830;24.390;2022-11-20T08:15:48;18.33;;;10.73;;
32242;SDS011;18731;42.830;24.390;2022-11-20T08:18:16;18.10;;;11.00;;
32242;SDS011;18731;42.830;24.390;2022-11-20T08:20:42;17.30;;;11.43;;
32242;SDS011;18731;42.830;24.390;2022-11-20T08:23:08;17.52;;;11.55;;
32242;SDS011;18731;42.830;24.390;2022-11-20T08:25:35;17.90;;;11.88;;
32242;SDS011;18731;42.830;24.390;2022-11-20T08:28:03;16.90;;;11.43;;
32242;SDS011;18731;42.830;24.390;2022-11-20T08:30:30;17.17;;;11.20;;
32242;SDS011;18731;42.830;24.390;2022-11-20T08:33:03;18.17;;;11.27;;
32242;SDS011;18731;42.830;24.390;2022-11-20T08:35:37;18.05;;;11.35;;
32242;SDS011;18731;42.830;24.390;2022-11-20T08:38:04;17.30;;;11.05;;
32242;SDS011;18731;42.830;24.390;2022-11-20T08:40:31;16.95;;;10.52;;
32242;SDS011;18731;42.830;24.390;2022-11-20T08:42:57;17.90;;;11.55;;
32242;SDS011;18731;42.830;24.390;2022-11-20T08:45:23;18.40;;;12.07;;
32242;SDS011;18731;42.830;24.390;2022-11-20T08:47:49;18.92;;;11.18;;
32242;SDS011;18731;42.830;24.390;2022-11-20T08:50:15;17.45;;;11.48;;
32242;SDS011;18731;42.830;24.390;2022-11-20T08:52:42;19.30;;;12.43;;
32242;SDS011;18731;42.830;24.390;2022-11-20T08:55:08;16.95;;;10.90;;
32242;SDS011;18731;42.830;24.390;2022-11-20T08:57:35;16.95;;;10.85;;
32242;SDS011;18731;42.830;24.390;2022-11-20T09:00:06;17.20;;;9.55;;
32242;SDS011;18731;42.830;24.390;2022-11-20T09:02:35;16.05;;;10.00;;
32242;SDS011;18731;42.830;24.390;2022-11-20T09:05:01;15.35;;;9.93;;
32242;SDS011;18731;42.830;24.390;2022-11-20T09:07:27;16.90;;;10.75;;
32242;SDS011;18731;42.830;24.390;2022-11-20T09:09:53;15.30;;;10.07;;
32242;SDS011;18731;42.830;24.390;2022-11-20T09:12:19;14.85;;;10.32;;
32242;SDS011;18731;42.830;24.390;2022-11-20T09:14:44;13.52;;;9.63;;
32242;SDS011;18731;42.830;24.390;2022-11-20T09:17:10;10.98;;;8.32;;
32242;SDS011;18731;42.830;24.390;2022-11-20T09:19:38;12.85;;;8.15;;
32242;SDS011;18731;42.830;24.390;2022-11-20T09:22:05;11.57;;;8.15;;
32242;SDS011;18731;42.830;24.390;2022-11-20T09:24:31;15.02;;;8.73;;
32242;SDS011;18731;42.830;24.390;2022-11-20T09:26:56;14.13;;;9.18;;
32242;SDS011;18731;42.830;24.390;2022-11-20T09:29:22;12.70;;;8.18;;
32242;SDS011;18731;42.830;24.390;2022-11-20T09:31:48;12.10;;;9.13;;
32242;SDS011;18731;42.830;24.390;2022-11-20T09:34:13;14.82;;;8.70;;
32242;SDS011;18731;42.830;24.390;2022-11-20T09:36:39;12.00;;;8.77;;
32242;SDS011;18731;42.830;24.390;2022-11-20T09:39:04;16.00;;;9.85;;
32242;SDS011;18731;42.830;24.390;2022-11-20T09:47:02;11.30;;;7.97;;
32242;SDS011;18731;42.830;24.390;2022-11-20T09:52:28;10.70;;;7.75;;
32242;SDS011;18731;42.830;24.390;2022-11-20T09:55:02;11.68;;;7.38;;
32242;SDS011;18731;42.830;24.390;2022-11-20T09:57:39;12.98;;;7.25;;
32242;SDS011;18731;42.830;24.390;2022-11-20T10:00:11;12.63;;;6.55;;
32242;SDS011;18731;42.830;24.390;2022-11-20T10:02:44;13.90;;;8.23;;
32242;SDS011;18731;42.830;24.390;2022-11-20T10:05:28;9.80;;;6.55;;
32242;SDS011;18731;42.830;24.390;2022-11-20T10:10:56;10.65;;;6.32;;
32242;SDS011;18731;42.830;24.390;2022-11-20T10:13:57;8.70;;;6.15;;
32242;SDS011;18731;42.830;24.390;2022-11-20T10:30:18;9.25;;;6.15;;
32242;SDS011;18731;42.830;24.390;2022-11-20T10:32:51;10.23;;;5.68;;
32242;SDS011;18731;42.830;24.390;2022-11-20T10:38:05;8.25;;;5.18;;
32242;SDS011;18731;42.830;24.390;2022-11-20T10:40:45;12.73;;;6.00;;
32242;SDS011;18731;42.830;24.390;2022-11-20T10:43:44;10.77;;;6.57;;
32242;SDS011;18731;42.830;24.390;2022-11-20T10:46:20;12.15;;;6.65;;
32242;SDS011;18731;42.830;24.390;2022-11-20T10:48:49;11.80;;;6.50;;
32242;SDS011;18731;42.830;24.390;2022-11-20T10:56:41;9.48;;;6.18;;
32242;SDS011;18731;42.830;24.390;2022-11-20T11:01:50;14.75;;;7.80;;
32242;SDS011;18731;42.830;24.390;2022-11-20T11:04:29;10.55;;;8.05;;
32242;SDS011;18731;42.830;24.390;2022-11-20T11:07:47;13.07;;;8.85;;
32242;SDS011;18731;42.830;24.390;2022-11-20T11:10:05;13.55;;;9.02;;
32242;SDS011;18731;42.830;24.390;2022-11-20T11:12:46;13.55;;;8.27;;
32242;SDS011;18731;42.830;24.390;2022-11-20T11:15:58;16.38;;;8.10;;
32242;SDS011;18731;42.830;24.390;2022-11-20T11:18:09;13.68;;;8.02;;
32242;SDS011;18731;42.830;24.390;2022-11-20T11:20:36;14.00;;;7.47;;
32242;SDS011;18731;42.830;24.390;2022-11-20T11:23:02;11.85;;;7.82;;
32242;SDS011;18731;42.830;24.390;2022-11-20T11:25:30;10.13;;;7.35;;
32242;SDS011;18731;42.830;24.390;2022-11-20T11:28:04;12.45;;;7.93;;
32242;SDS011;18731;42.830;24.390;2022-11-20T11:30:43;9.30;;;7.05;;
32242;SDS011;18731;42.830;24.390;2022-11-20T11:33:11;9.43;;;6.70;;
32242;SDS011;18731;42.830;24.390;2022-11-20T11:35:45;18.83;;;8.15;;
32242;SDS011;18731;42.830;24.390;2022-11-20T11:38:21;13.45;;;7.82;;
32242;SDS011;18731;42.830;24.390;2022-11-20T11:40:55;15.55;;;8.00;;
32242;SDS011;18731;42.830;24.390;2022-11-20T11:43:23;14.65;;;9.15;;
32242;SDS011;18731;42.830;24.390;2022-11-20T11:46:21;14.07;;;8.75;;
32242;SDS011;18731;42.830;24.390;2022-11-20T11:49:19;21.35;;;9.77;;
32242;SDS011;18731;42.830;24.390;2022-11-20T11:54:28;19.23;;;10.65;;
32242;SDS011;18731;42.830;24.390;2022-11-20T11:57:04;17.30;;;10.38;;
32242;SDS011;18731;42.830;24.390;2022-11-20T11:59:44;15.27;;;9.65;;
32242;SDS011;18731;42.830;24.390;2022-11-20T12:02:28;16.23;;;11.02;;
32242;SDS011;18731;42.830;24.390;2022-11-20T12:05:47;22.70;;;13.52;;
32242;SDS011;18731;42.830;24.390;2022-11-20T12:08:05;16.63;;;10.70;;
32242;SDS011;18731;42.830;24.390;2022-11-20T12:10:56;23.17;;;12.52;;
32242;SDS011;18731;42.830;24.390;2022-11-20T12:16:27;15.65;;;9.93;;
32242;SDS011;18731;42.830;24.390;2022-11-20T12:18:55;11.95;;;8.65;;
32242;SDS011;18731;42.830;24.390;2022-11-20T12:29:24;14.95;;;7.97;;
32242;SDS011;18731;42.830;24.390;2022-11-20T12:34:58;12.80;;;7.03;;
32242;SDS011;18731;42.830;24.390;2022-11-20T12:37:37;11.25;;;6.43;;
32242;SDS011;18731;42.830;24.390;2022-11-20T12:43:28;12.70;;;7.35;;
32242;SDS011;18731;42.830;24.390;2022-11-20T12:49:02;13.50;;;9.27;;
32242;SDS011;18731;42.830;24.390;2022-11-20T12:57:53;15.15;;;8.98;;
32242;SDS011;18731;42.830;24.390;2022-11-20T13:00:23;12.80;;;7.38;;
32242;SDS011;18731;42.830;24.390;2022-11-20T13:08:58;15.57;;;7.53;;
32242;SDS011;18731;42.830;24.390;2022-11-20T13:11:40;10.32;;;6.57;;
32242;SDS011;18731;42.830;24.390;2022-11-20T13:16:50;9.45;;;4.88;;
32242;SDS011;18731;42.830;24.390;2022-11-20T13:19:23;14.18;;;5.20;;
32242;SDS011;18731;42.830;24.390;2022-11-20T13:21:49;10.68;;;5.60;;
32242;SDS011;18731;42.830;24.390;2022-11-20T13:26:44;12.38;;;5.55;;
32242;SDS011;18731;42.830;24.390;2022-11-20T13:29:17;12.60;;;7.15;;
32242;SDS011;18731;42.830;24.390;2022-11-20T13:31:45;45.72;;;22.65;;
32242;SDS011;18731;42.830;24.390;2022-11-20T13:34:22;26.50;;;13.05;;
32242;SDS011;18731;42.830;24.390;2022-11-20T13:36:51;21.92;;;9.90;;
32242;SDS011;18731;42.830;24.390;2022-11-20T13:39:28;21.52;;;12.10;;
32242;SDS011;18731;42.830;24.390;2022-11-20T13:42:00;18.27;;;10.55;;
32242;SDS011;18731;42.830;24.390;2022-11-20T13:45:02;25.33;;;10.13;;
32242;SDS011;18731;42.830;24.390;2022-11-20T13:47:22;13.15;;;7.88;;
32242;SDS011;18731;42.830;24.390;2022-11-20T13:49:49;22.40;;;9.25;;
32242;SDS011;18731;42.830;24.390;2022-11-20T13:55:35;41.45;;;20.63;;
32242;SDS011;18731;42.830;24.390;2022-11-20T14:01:08;21.63;;;11.93;;
32242;SDS011;18731;42.830;24.390;2022-11-20T14:03:50;12.18;;;6.03;;
32242;SDS011;18731;42.830;24.390;2022-11-20T14:08:52;15.25;;;8.55;;
32242;SDS011;18731;42.830;24.390;2022-11-20T14:11:20;23.10;;;10.77;;
32242;SDS011;18731;42.830;24.390;2022-11-20T14:16:29;12.25;;;6.03;;
32242;SDS011;18731;42.830;24.390;2022-11-20T14:19:00;16.00;;;7.28;;
32242;SDS011;18731;42.830;24.390;2022-11-20T14:21:48;11.65;;;8.10;;
32242;SDS011;18731;42.830;24.390;2022-11-20T14:24:18;5.50;;;3.15;;
32242;SDS011;18731;42.830;24.390;2022-11-20T14:26:46;7.63;;;3.75;;
32242;SDS011;18731;42.830;24.390;2022-11-20T14:29:15;8.27;;;4.72;;
32242;SDS011;18731;42.830;24.390;2022-11-20T14:31:44;12.32;;;7.07;;
32242;SDS011;18731;42.830;24.390;2022-11-20T14:34:15;5.03;;;3.33;;
32242;SDS011;18731;42.830;24.390;2022-11-20T14:36:43;5.45;;;1.90;;
32242;SDS011;18731;42.830;24.390;2022-11-20T14:39:24;4.22;;;2.53;;
32242;SDS011;18731;42.830;24.390;2022-11-20T14:42:00;4.50;;;2.63;;
32242;SDS011;18731;42.830;24.390;2022-11-20T14:44:31;5.22;;;2.10;;
32242;SDS011;18731;42.830;24.390;2022-11-20T14:46:59;2.88;;;2.25;;
32242;SDS011;18731;42.830;24.390;2022-11-20T14:49:27;3.70;;;2.20;;
32242;SDS011;18731;42.830;24.390;2022-11-20T14:54:46;5.05;;;2.15;;
32242;SDS011;18731;42.830;24.390;2022-11-20T14:57:27;4.60;;;2.00;;
32242;SDS011;18731;42.830;24.390;2022-11-20T15:02:41;3.60;;;2.55;;
32242;SDS011;18731;42.830;24.390;2022-11-20T15:05:08;7.00;;;3.63;;
32242;SDS011;18731;42.830;24.390;2022-11-20T15:07:38;6.88;;;4.72;;
32242;SDS011;18731;42.830;24.390;2022-11-20T15:10:12;5.95;;;3.28;;
32242;SDS011;18731;42.830;24.390;2022-11-20T15:12:53;6.90;;;4.35;;
32242;SDS011;18731;42.830;24.390;2022-11-20T15:15:22;6.68;;;4.40;;
32242;SDS011;18731;42.830;24.390;2022-11-20T15:18:12;9.43;;;5.25;;
32242;SDS011;18731;42.830;24.390;2022-11-20T15:20:40;7.53;;;4.90;;
32242;SDS011;18731;42.830;24.390;2022-11-20T15:23:13;9.05;;;6.07;;
32242;SDS011;18731;42.830;24.390;2022-11-20T15:25:40;7.90;;;5.30;;
32242;SDS011;18731;42.830;24.390;2022-11-20T15:28:12;9.27;;;5.45;;
32242;SDS011;18731;42.830;24.390;2022-11-20T15:30:41;10.35;;;5.68;;
32242;SDS011;18731;42.830;24.390;2022-11-20T15:33:08;10.05;;;5.97;;
32242;SDS011;18731;42.830;24.390;2022-11-20T15:35:35;9.13;;;6.32;;
32242;SDS011;18731;42.830;24.390;2022-11-20T15:38:00;11.15;;;6.05;;
32242;SDS011;18731;42.830;24.390;2022-11-20T15:40:26;7.50;;;4.80;;
32242;SDS011;18731;42.830;24.390;2022-11-20T15:42:52;8.13;;;5.50;;
32242;SDS011;18731;42.830;24.390;2022-11-20T15:45:33;8.00;;;4.03;;
32242;SDS011;18731;42.830;24.390;2022-11-20T15:48:07;13.63;;;7.43;;
32242;SDS011;18731;42.830;24.390;2022-11-20T15:50:38;13.57;;;8.30;;
32242;SDS011;18731;42.830;24.390;2022-11-20T15:53:18;17.17;;;11.98;;
32242;SDS011;18731;42.830;24.390;2022-11-20T15:55:44;15.18;;;7.38;;
32242;SDS011;18731;42.830;24.390;2022-11-20T15:58:10;14.73;;;7.95;;
32242;SDS011;18731;42.830;24.390;2022-11-20T16:00:35;16.85;;;9.70;;
32242;SDS011;18731;42.830;24.390;2022-11-20T16:03:01;17.38;;;11.55;;
32242;SDS011;18731;42.830;24.390;2022-11-20T16:05:30;52.83;;;27.73;;
32242;SDS011;18731;42.830;24.390;2022-11-20T16:07:56;47.40;;;25.80;;
32242;SDS011;18731;42.830;24.390;2022-11-20T16:10:22;28.55;;;18.75;;
32242;SDS011;18731;42.830;24.390;2022-11-20T16:12:48;29.92;;;19.45;;
32242;SDS011;18731;42.830;24.390;2022-11-20T16:15:33;18.05;;;10.43;;
32242;SDS011;18731;42.830;24.390;2022-11-20T16:18:11;43.42;;;22.42;;
32242;SDS011;18731;42.830;24.390;2022-11-20T16:20:48;31.45;;;20.92;;
32242;SDS011;18731;42.830;24.390;2022-11-20T16:23:16;19.70;;;10.43;;
32242;SDS011;18731;42.830;24.390;2022-11-20T16:25:42;15.13;;;9.95;;
32242;SDS011;18731;42.830;24.390;2022-11-20T16:28:08;19.75;;;13.55;;
32242;SDS011;18731;42.830;24.390;2022-11-20T16:30:34;18.45;;;12.88;;
32242;SDS011;18731;42.830;24.390;2022-11-20T16:33:01;21.00;;;13.98;;
32242;SDS011;18731;42.830;24.390;2022-11-20T16:35:28;23.17;;;13.20;;
32242;SDS011;18731;42.830;24.390;2022-11-20T16:37:57;22.52;;;11.73;;
32242;SDS011;18731;42.830;24.390;2022-11-20T16:40:23;13.48;;;9.70;;
32242;SDS011;18731;42.830;24.390;2022-11-20T16:42:50;14.40;;;10.18;;
32242;SDS011;18731;42.830;24.390;2022-11-20T16:45:16;31.13;;;17.27;;
32242;SDS011;18731;42.830;24.390;2022-11-20T16:47:42;31.60;;;21.35;;
32242;SDS011;18731;42.830;24.390;2022-11-20T16:50:08;35.08;;;23.48;;
32242;SDS011;18731;42.830;24.390;2022-11-20T16:52:34;27.20;;;19.08;;
32242;SDS011;18731;42.830;24.390;2022-11-20T16:55:00;34.10;;;22.20;;
32242;SDS011;18731;42.830;24.390;2022-11-20T16:57:29;31.00;;;18.42;;
32242;SDS011;18731;42.830;24.390;2022-11-20T16:59:57;30.10;;;20.67;;
32242;SDS011;18731;42.830;24.390;2022-11-20T17:02:26;12.27;;;6.68;;
32242;SDS011;18731;42.830;24.390;2022-11-20T17:04:52;12.73;;;8.77;;
32242;SDS011;18731;42.830;24.390;2022-11-20T17:07:18;18.45;;;11.23;;
32242;SDS011;18731;42.830;24.390;2022-11-20T17:09:44;18.55;;;9.60;;
32242;SDS011;18731;42.830;24.390;2022-11-20T17:12:09;17.75;;;11.30;;
32242;SDS011;18731;42.830;24.390;2022-11-20T17:14:35;16.83;;;11.48;;
32242;SDS011;18731;42.830;24.390;2022-11-20T17:17:01;23.92;;;12.25;;
32242;SDS011;18731;42.830;24.390;2022-11-20T17:19:27;48.25;;;21.35;;
32242;SDS011;18731;42.830;24.390;2022-11-20T17:21:53;39.92;;;20.63;;
32242;SDS011;18731;42.830;24.390;2022-11-20T17:24:18;35.83;;;21.13;;
32242;SDS011;18731;42.830;24.390;2022-11-20T17:26:44;32.17;;;19.27;;
32242;SDS011;18731;42.830;24.390;2022-11-20T17:29:13;35.15;;;20.13;;
32242;SDS011;18731;42.830;24.390;2022-11-20T17:31:40;39.60;;;22.88;;
32242;SDS011;18731;42.830;24.390;2022-11-20T17:34:08;33.78;;;21.25;;
32242;SDS011;18731;42.830;24.390;2022-11-20T17:36:36;37.47;;;21.45;;
32242;SDS011;18731;42.830;24.390;2022-11-20T17:39:12;33.72;;;21.00;;
32242;SDS011;18731;42.830;24.390;2022-11-20T17:41:39;37.47;;;21.83;;
32242;SDS011;18731;42.830;24.390;2022-11-20T17:44:04;34.88;;;20.55;;
32242;SDS011;18731;42.830;24.390;2022-11-20T17:46:31;34.15;;;20.48;;
32242;SDS011;18731;42.830;24.390;2022-11-20T17:48:57;32.25;;;19.15;;
32242;SDS011;18731;42.830;24.390;2022-11-20T17:51:25;30.67;;;20.15;;
32242;SDS011;18731;42.830;24.390;2022-11-20T17:53:57;33.63;;;20.00;;
32242;SDS011;18731;42.830;24.390;2022-11-20T17:56:25;29.92;;;16.20;;
32242;SDS011;18731;42.830;24.390;2022-11-20T17:59:12;30.17;;;18.25;;
32242;SDS011;18731;42.830;24.390;2022-11-20T18:01:38;32.28;;;18.75;;
32242;SDS011;18731;42.830;24.390;2022-11-20T18:04:07;25.63;;;16.55;;
32242;SDS011;18731;42.830;24.390;2022-11-20T18:06:33;30.95;;;19.23;;
32242;SDS011;18731;42.830;24.390;2022-11-20T18:08:59;33.15;;;18.15;;
32242;SDS011;18731;42.830;24.390;2022-11-20T18:11:27;30.98;;;19.73;;
32242;SDS011;18731;42.830;24.390;2022-11-20T18:13:57;20.83;;;14.00;;
32242;SDS011;18731;42.830;24.390;2022-11-20T18:16:44;24.42;;;15.43;;
32242;SDS011;18731;42.830;24.390;2022-11-20T18:19:13;34.05;;;21.60;;
32242;SDS011;18731;42.830;24.390;2022-11-20T18:21:41;38.50;;;25.83;;
32242;SDS011;18731;42.830;24.390;2022-11-20T18:24:07;34.00;;;22.65;;
32242;SDS011;18731;42.830;24.390;2022-11-20T18:26:34;39.28;;;26.15;;
32242;SDS011;18731;42.830;24.390;2022-11-20T18:29:00;32.20;;;20.48;;
32242;SDS011;18731;42.830;24.390;2022-11-20T18:31:26;26.35;;;16.77;;
32242;SDS011;18731;42.830;24.390;2022-11-20T18:33:52;30.40;;;17.70;;
32242;SDS011;18731;42.830;24.390;2022-11-20T18:36:23;47.22;;;30.08;;
32242;SDS011;18731;42.830;24.390;2022-11-20T18:38:54;32.95;;;21.95;;
32242;SDS011;18731;42.830;24.390;2022-11-20T18:41:22;36.47;;;22.88;;
32242;SDS011;18731;42.830;24.390;2022-11-20T18:44:16;32.63;;;21.60;;
32242;SDS011;18731;42.830;24.390;2022-11-20T18:49:30;34.15;;;19.95;;
32242;SDS011;18731;42.830;24.390;2022-11-20T18:51:56;33.75;;;22.20;;
32242;SDS011;18731;42.830;24.390;2022-11-20T18:54:21;36.05;;;23.15;;
32242;SDS011;18731;42.830;24.390;2022-11-20T18:56:47;34.85;;;23.33;;
32242;SDS011;18731;42.830;24.390;2022-11-20T18:59:13;25.92;;;16.88;;
32242;SDS011;18731;42.830;24.390;2022-11-20T19:01:39;27.90;;;17.85;;
32242;SDS011;18731;42.830;24.390;2022-11-20T19:04:05;31.48;;;20.30;;
32242;SDS011;18731;42.830;24.390;2022-11-20T19:06:35;27.77;;;17.27;;
32242;SDS011;18731;42.830;24.390;2022-11-20T19:09:05;24.35;;;12.73;;
32242;SDS011;18731;42.830;24.390;2022-11-20T19:11:36;20.05;;;12.50;;